createdAt,value
2022-08-25T00:00:40.791Z,3.22
2022-08-25T00:01:44.073Z,2.80
2022-08-25T00:02:55.299Z,2.55
2022-08-25T00:03:58.290Z,3.20
2022-08-25T00:04:59.813Z,2.95
2022-08-25T00:06:01.160Z,2.90
2022-08-25T00:07:04.493Z,2.72
2022-08-25T00:08:06.612Z,2.80
2022-08-25T00:09:08.874Z,2.97
2022-08-25T00:10:10.321Z,2.80
2022-08-25T00:11:16.792Z,2.78
2022-08-25T00:12:18.132Z,2.92
2022-08-25T00:13:19.505Z,2.80
2022-08-25T00:14:22.804Z,2.97
2022-08-25T00:15:24.239Z,3.10
2022-08-25T00:16:26.498Z,2.65
2022-08-25T00:17:28.133Z,2.75
2022-08-25T00:18:29.523Z,3.17
2022-08-25T00:19:32.513Z,2.92
2022-08-25T00:20:33.854Z,2.78
2022-08-25T00:21:35.345Z,2.90
2022-08-25T00:22:36.672Z,2.92
2022-08-25T00:23:38.128Z,2.70
2022-08-25T00:24:39.593Z,2.92
2022-08-25T00:25:40.997Z,3.00
2022-08-25T00:26:43.807Z,3.00
2022-08-25T00:27:45.879Z,2.85
2022-08-25T00:28:48.035Z,2.60
2022-08-25T00:29:50.378Z,3.17
2022-08-25T00:30:51.759Z,3.13
2022-08-25T00:31:54.877Z,3.05
2022-08-25T00:32:57.509Z,3.40
2022-08-25T00:33:59.003Z,2.75
2022-08-25T00:35:00.765Z,3.17
2022-08-25T00:36:02.164Z,3.20
2022-08-25T00:37:04.697Z,2.58
2022-08-25T00:38:06.143Z,3.20
2022-08-25T00:39:08.650Z,3.50
2022-08-25T00:40:10.303Z,3.00
2022-08-25T00:41:13.774Z,3.15
2022-08-25T00:42:16.122Z,2.90
2022-08-25T00:43:18.664Z,2.97
2022-08-25T00:44:20.159Z,3.17
2022-08-25T00:45:23.138Z,3.38
2022-08-25T00:46:26.164Z,3.17
2022-08-25T00:47:27.533Z,3.10
2022-08-25T00:48:29.231Z,3.08
2022-08-25T00:49:36.224Z,3.33
2022-08-25T00:50:37.622Z,3.47
2022-08-25T00:51:40.624Z,3.35
2022-08-25T00:52:43.824Z,3.58
2022-08-25T00:53:45.879Z,3.28
2022-08-25T00:54:51.984Z,3.58
2022-08-25T00:55:54.086Z,3.25
2022-08-25T00:56:56.630Z,3.25
2022-08-25T00:58:02.285Z,3.15
2022-08-25T00:59:04.303Z,3.20
2022-08-25T01:00:15.193Z,3.40
2022-08-25T01:01:16.668Z,3.30
2022-08-25T01:02:18.277Z,3.40
2022-08-25T01:03:19.857Z,3.10
2022-08-25T01:04:21.275Z,3.95
2022-08-25T01:05:22.749Z,3.40
2022-08-25T01:06:24.512Z,3.53
2022-08-25T01:07:25.875Z,3.00
2022-08-25T01:08:29.181Z,3.58
2022-08-25T01:09:32.446Z,3.65
2022-08-25T01:10:34.722Z,3.78
2022-08-25T01:11:36.725Z,3.55
2022-08-25T01:12:38.124Z,3.70
2022-08-25T01:13:48.607Z,3.63
2022-08-25T01:14:51.007Z,3.70
2022-08-25T01:15:53.830Z,3.63
2022-08-25T01:16:55.486Z,3.78
2022-08-25T01:17:57.416Z,3.78
2022-08-25T01:19:01.234Z,3.72
2022-08-25T01:20:03.281Z,4.30
2022-08-25T01:21:04.617Z,4.10
2022-08-25T01:22:06.413Z,4.18
2022-08-25T01:23:07.995Z,4.43
2022-08-25T01:24:11.195Z,4.10
2022-08-25T01:25:20.899Z,4.70
2022-08-25T01:26:30.172Z,4.25
2022-08-25T01:27:32.339Z,3.95
2022-08-25T01:28:34.132Z,4.28
2022-08-25T01:29:36.218Z,4.32
2022-08-25T01:30:37.927Z,4.20
2022-08-25T01:31:39.943Z,4.30
2022-08-25T01:32:41.273Z,3.58
2022-08-25T01:33:42.643Z,3.92
2022-08-25T01:34:45.388Z,3.70
2022-08-25T01:35:46.850Z,3.92
2022-08-25T01:36:48.413Z,4.15
2022-08-25T01:37:50.021Z,4.20
2022-08-25T01:38:51.456Z,4.10
2022-08-25T01:39:54.076Z,4.13
2022-08-25T01:40:55.470Z,4.07
2022-08-25T01:41:59.680Z,4.20
2022-08-25T01:43:06.763Z,4.10
2022-08-25T01:44:08.788Z,3.90
2022-08-25T01:45:17.347Z,4.68
2022-08-25T01:46:18.766Z,4.13
2022-08-25T01:47:20.236Z,4.20
2022-08-25T01:48:21.587Z,4.35
2022-08-25T01:49:23.008Z,4.05
2022-08-25T01:50:25.127Z,4.32
2022-08-25T01:51:27.950Z,4.32
2022-08-25T01:52:34.273Z,4.05
2022-08-25T01:53:35.624Z,3.72
2022-08-25T01:54:36.990Z,4.20
2022-08-25T01:55:55.331Z,3.97
2022-08-25T01:56:57.695Z,4.28
2022-08-25T01:57:59.294Z,4.15
2022-08-25T01:59:00.824Z,4.18
2022-08-25T02:00:02.187Z,4.28
2022-08-25T02:01:16.064Z,4.32
2022-08-25T02:02:18.459Z,4.30
2022-08-25T02:03:20.166Z,3.85
2022-08-25T02:04:22.043Z,4.03
2022-08-25T02:05:23.929Z,4.30
2022-08-25T02:06:32.076Z,3.90
2022-08-25T02:07:34.756Z,4.22
2022-08-25T02:08:36.431Z,4.45
2022-08-25T02:09:38.307Z,4.35
2022-08-25T02:10:40.479Z,4.20
2022-08-25T02:11:42.986Z,4.50
2022-08-25T02:12:44.445Z,4.65
2022-08-25T02:13:45.933Z,4.38
2022-08-25T02:14:48.432Z,4.43
2022-08-25T02:15:51.714Z,4.70
2022-08-25T02:16:53.494Z,4.70
2022-08-25T02:17:54.899Z,4.68
2022-08-25T02:18:56.732Z,4.50
2022-08-25T02:19:58.231Z,4.30
2022-08-25T02:20:59.598Z,4.63
2022-08-25T02:22:01.099Z,4.32
2022-08-25T02:23:02.761Z,4.38
2022-08-25T02:24:04.989Z,4.72
2022-08-25T02:25:06.674Z,4.57
2022-08-25T02:26:08.779Z,4.90
2022-08-25T02:27:10.607Z,4.32
2022-08-25T02:28:12.716Z,4.60
2022-08-25T02:29:14.206Z,4.82
2022-08-25T02:30:15.992Z,5.00
2022-08-25T02:31:18.522Z,4.72
2022-08-25T02:32:19.903Z,4.65
2022-08-25T02:33:22.362Z,4.97
2022-08-25T02:34:23.787Z,5.22
2022-08-25T02:35:25.120Z,4.18
2022-08-25T02:36:26.845Z,4.65
2022-08-25T02:37:28.284Z,4.05
2022-08-25T02:38:29.931Z,4.47
2022-08-25T02:39:31.282Z,4.40
2022-08-25T02:40:32.818Z,4.47
2022-08-25T02:41:34.907Z,4.30
2022-08-25T02:42:36.302Z,4.60
2022-08-25T02:43:37.976Z,4.85
2022-08-25T02:44:39.323Z,4.95
2022-08-25T02:45:41.584Z,5.00
2022-08-25T02:46:42.997Z,5.60
2022-08-25T02:47:44.913Z,5.13
2022-08-25T02:48:46.929Z,5.47
2022-08-25T02:49:48.672Z,4.85
2022-08-25T02:50:52.433Z,5.60
2022-08-25T02:51:54.466Z,5.60
2022-08-25T02:52:55.808Z,5.95
2022-08-25T02:53:57.931Z,5.65
2022-08-25T02:54:59.302Z,5.22
2022-08-25T02:56:01.010Z,5.07
2022-08-25T02:57:02.571Z,5.72
2022-08-25T02:58:03.977Z,5.90
2022-08-25T02:59:05.707Z,5.50
2022-08-25T03:00:07.576Z,5.65
2022-08-25T03:01:11.887Z,5.68
2022-08-25T03:02:13.452Z,5.90
2022-08-25T03:03:15.030Z,5.70
2022-08-25T03:04:16.360Z,5.90
2022-08-25T03:05:17.746Z,5.18
2022-08-25T03:06:20.634Z,5.80
2022-08-25T03:07:22.023Z,5.85
2022-08-25T03:08:26.427Z,5.57
2022-08-25T03:09:27.765Z,5.20
2022-08-25T03:10:29.231Z,5.82
2022-08-25T03:11:31.736Z,5.50
2022-08-25T03:12:33.042Z,5.47
2022-08-25T03:13:34.861Z,5.90
2022-08-25T03:14:36.318Z,5.32
2022-08-25T03:15:38.031Z,5.63
2022-08-25T03:16:40.763Z,5.68
2022-08-25T03:17:45.687Z,5.93
2022-08-25T03:18:48.292Z,5.57
2022-08-25T03:19:49.632Z,5.93
2022-08-25T03:20:51.082Z,5.65
2022-08-25T03:21:55.895Z,6.20
2022-08-25T03:22:57.269Z,5.50
2022-08-25T03:23:59.076Z,6.13
2022-08-25T03:25:24.035Z,5.88
2022-08-25T03:26:44.562Z,6.03
2022-08-25T03:27:45.909Z,5.63
2022-08-25T03:28:47.240Z,5.80
2022-08-25T03:29:49.458Z,5.90
2022-08-25T03:30:53.463Z,5.82
2022-08-25T03:32:00.939Z,5.45
2022-08-25T03:33:02.357Z,6.13
2022-08-25T03:34:03.912Z,5.50
2022-08-25T03:35:05.959Z,6.95
2022-08-25T03:36:08.513Z,7.28
2022-08-25T03:37:12.247Z,7.00
2022-08-25T03:38:13.576Z,6.00
2022-08-25T03:39:15.923Z,6.10
2022-08-25T03:40:19.991Z,4.68
2022-08-25T03:41:23.292Z,5.53
2022-08-25T03:42:26.419Z,5.22
2022-08-25T03:43:27.767Z,5.30
2022-08-25T03:44:29.113Z,5.05
2022-08-25T03:45:30.826Z,4.97
2022-08-25T03:46:33.837Z,4.90
2022-08-25T03:47:35.189Z,4.63
2022-08-25T03:48:37.094Z,5.35
2022-08-25T03:49:38.441Z,5.30
2022-08-25T03:50:51.753Z,5.25
2022-08-25T03:51:53.785Z,5.13
2022-08-25T03:52:56.219Z,5.32
2022-08-25T03:53:58.937Z,5.38
2022-08-25T03:55:00.767Z,5.22
2022-08-25T03:56:02.165Z,5.20
2022-08-25T03:57:04.003Z,5.80
2022-08-25T03:58:05.481Z,5.72
2022-08-25T03:59:09.184Z,6.53
2022-08-25T04:00:12.175Z,6.18
2022-08-25T04:01:13.890Z,6.20
2022-08-25T04:02:16.916Z,5.80
2022-08-25T04:03:18.833Z,5.90
2022-08-25T04:04:20.828Z,5.90
2022-08-25T04:05:22.175Z,6.18
2022-08-25T04:06:28.181Z,6.50
2022-08-25T04:07:29.628Z,5.93
2022-08-25T04:08:30.967Z,5.95
2022-08-25T04:09:36.437Z,5.88
2022-08-25T04:10:38.292Z,5.63
2022-08-25T04:11:40.248Z,6.07
2022-08-25T04:12:44.109Z,5.78
2022-08-25T04:13:46.595Z,5.95
2022-08-25T04:14:48.186Z,5.95
2022-08-25T04:15:50.037Z,5.63
2022-08-25T04:16:52.811Z,5.13
2022-08-25T04:17:54.526Z,5.60
2022-08-25T04:18:56.055Z,5.75
2022-08-25T04:19:57.388Z,5.78
2022-08-25T04:21:02.792Z,5.70
2022-08-25T04:22:04.260Z,6.00
2022-08-25T04:23:05.629Z,6.28
2022-08-25T04:24:07.738Z,6.50
2022-08-25T04:25:09.330Z,6.68
2022-08-25T04:26:15.167Z,5.50
2022-08-25T04:27:16.893Z,5.50
2022-08-25T04:28:18.258Z,6.10
2022-08-25T04:29:23.523Z,5.88
2022-08-25T04:30:25.253Z,5.80
2022-08-25T04:31:27.858Z,7.00
2022-08-25T04:32:29.377Z,5.80
2022-08-25T04:33:30.711Z,6.32
2022-08-25T04:34:32.102Z,6.30
2022-08-25T04:35:33.498Z,5.70
2022-08-25T04:36:34.961Z,5.30
2022-08-25T04:37:36.325Z,6.15
2022-08-25T04:38:38.627Z,6.00
2022-08-25T04:39:40.069Z,6.07
2022-08-25T04:40:41.464Z,5.97
2022-08-25T04:41:43.260Z,6.40
2022-08-25T04:42:47.648Z,5.72
2022-08-25T04:43:49.781Z,6.13
2022-08-25T04:44:51.124Z,5.82
2022-08-25T04:45:52.662Z,5.75
2022-08-25T04:46:54.116Z,5.90
2022-08-25T04:47:57.985Z,6.22
2022-08-25T04:49:00.524Z,5.82
2022-08-25T04:50:01.855Z,6.07
2022-08-25T04:51:06.668Z,6.63
2022-08-25T04:52:13.159Z,6.43
2022-08-25T04:53:16.120Z,6.10
2022-08-25T04:54:21.477Z,6.20
2022-08-25T04:55:22.823Z,6.78
2022-08-25T04:56:25.079Z,5.78
2022-08-25T04:57:26.570Z,6.25
2022-08-25T04:58:27.952Z,6.50
2022-08-25T04:59:30.438Z,6.07
2022-08-25T05:00:34.037Z,6.63
2022-08-25T05:01:35.748Z,6.18
2022-08-25T05:02:37.559Z,6.05
2022-08-25T05:03:38.925Z,5.97
2022-08-25T05:04:40.314Z,5.65
2022-08-25T05:05:42.416Z,5.60
2022-08-25T05:06:43.918Z,5.68
2022-08-25T05:07:46.729Z,5.55
2022-08-25T05:08:48.103Z,5.85
2022-08-25T05:09:49.449Z,6.15
2022-08-25T05:10:50.801Z,6.13
2022-08-25T05:11:53.594Z,5.63
2022-08-25T05:12:55.039Z,6.03
2022-08-25T05:13:57.503Z,5.60
2022-08-25T05:15:19.081Z,7.00
2022-08-25T05:16:21.676Z,5.90
2022-08-25T05:17:24.449Z,6.30
2022-08-25T05:18:27.756Z,6.18
2022-08-25T05:19:29.125Z,6.30
2022-08-25T05:20:31.157Z,6.43
2022-08-25T05:21:33.353Z,5.80
2022-08-25T05:22:34.736Z,5.90
2022-08-25T05:23:36.430Z,6.50
2022-08-25T05:24:38.190Z,5.90
2022-08-25T05:25:40.148Z,5.78
2022-08-25T05:26:41.662Z,6.30
2022-08-25T05:27:43.156Z,6.65
2022-08-25T05:28:44.566Z,6.10
2022-08-25T05:29:45.949Z,5.82
2022-08-25T05:30:49.473Z,6.05
2022-08-25T05:31:51.163Z,6.15
2022-08-25T05:32:52.531Z,6.30
2022-08-25T05:33:54.765Z,6.38
2022-08-25T05:34:56.299Z,6.03
2022-08-25T05:35:57.644Z,5.22
2022-08-25T05:37:00.142Z,5.90
2022-08-25T05:38:02.222Z,6.30
2022-08-25T05:39:04.192Z,6.40
2022-08-25T05:40:06.274Z,6.13
2022-08-25T05:41:10.194Z,6.20
2022-08-25T05:42:11.565Z,4.90
2022-08-25T05:43:14.664Z,5.57
2022-08-25T05:44:20.873Z,5.38
2022-08-25T05:45:22.884Z,5.68
2022-08-25T05:46:25.141Z,5.78
2022-08-25T05:47:26.760Z,6.05
2022-08-25T05:48:28.104Z,5.75
2022-08-25T05:49:29.436Z,5.55
2022-08-25T05:50:30.733Z,5.85
2022-08-25T05:51:32.071Z,5.43
2022-08-25T05:52:33.453Z,5.30
2022-08-25T05:53:35.004Z,5.60
2022-08-25T05:54:36.325Z,5.35
2022-08-25T05:55:38.029Z,5.63
2022-08-25T05:56:40.029Z,5.70
2022-08-25T05:57:41.745Z,5.03
2022-08-25T05:58:43.484Z,5.05
2022-08-25T05:59:44.832Z,5.60
2022-08-25T06:00:46.293Z,5.45
2022-08-25T06:02:06.285Z,5.35
2022-08-25T06:03:07.645Z,5.30
2022-08-25T06:04:09.016Z,5.40
2022-08-25T06:05:11.394Z,5.75
2022-08-25T06:06:13.346Z,5.82
2022-08-25T06:07:14.943Z,5.90
2022-08-25T06:08:16.308Z,5.53
2022-08-25T06:09:17.639Z,5.82
2022-08-25T06:10:20.145Z,5.97
2022-08-25T06:11:21.482Z,5.25
2022-08-25T06:12:22.862Z,5.70
2022-08-25T06:13:28.733Z,5.40
2022-08-25T06:14:30.301Z,5.32
2022-08-25T06:15:31.713Z,5.82
2022-08-25T06:16:33.214Z,6.15
2022-08-25T06:17:40.798Z,5.90
2022-08-25T06:18:42.099Z,5.97
2022-08-25T06:19:44.382Z,6.07
2022-08-25T06:20:45.915Z,5.38
2022-08-25T06:21:47.663Z,5.70
2022-08-25T06:22:49.319Z,6.13
2022-08-25T06:23:50.708Z,5.57
2022-08-25T06:24:55.024Z,6.28
2022-08-25T06:25:56.597Z,5.10
2022-08-25T06:26:57.970Z,5.70
2022-08-25T06:27:59.335Z,5.95
2022-08-25T06:29:00.684Z,6.38
2022-08-25T06:30:04.782Z,5.88
2022-08-25T06:31:09.638Z,5.50
2022-08-25T06:32:10.996Z,5.40
2022-08-25T06:33:12.453Z,5.80
2022-08-25T06:34:13.861Z,5.50
2022-08-25T06:35:17.204Z,5.05
2022-08-25T06:36:20.013Z,5.63
2022-08-25T06:37:25.239Z,5.95
2022-08-25T06:38:27.052Z,5.82
2022-08-25T06:39:28.423Z,5.80
2022-08-25T06:40:29.853Z,5.32
2022-08-25T06:41:37.010Z,5.15
2022-08-25T06:42:38.989Z,5.50
2022-08-25T06:43:47.391Z,5.95
2022-08-25T06:44:50.428Z,5.65
2022-08-25T06:45:51.812Z,5.03
2022-08-25T06:46:53.542Z,5.57
2022-08-25T06:47:57.358Z,5.53
2022-08-25T06:48:59.040Z,5.78
2022-08-25T06:50:00.473Z,5.70
2022-08-25T06:51:05.436Z,6.00
2022-08-25T06:52:06.755Z,5.82
2022-08-25T06:53:08.203Z,5.80
2022-08-25T06:54:12.577Z,5.93
2022-08-25T06:55:13.897Z,6.05
2022-08-25T06:56:19.162Z,5.80
2022-08-25T06:57:21.045Z,5.53
2022-08-25T06:58:22.408Z,5.63
2022-08-25T06:59:23.828Z,5.50
2022-08-25T07:00:30.564Z,6.68
2022-08-25T07:01:33.473Z,6.32
2022-08-25T07:02:35.499Z,5.70
2022-08-25T07:03:37.202Z,5.70
2022-08-25T07:04:38.885Z,5.18
2022-08-25T07:05:43.937Z,5.15
2022-08-25T07:06:46.116Z,4.88
2022-08-25T07:07:47.889Z,5.20
2022-08-25T07:08:49.430Z,5.60
2022-08-25T07:09:50.807Z,5.25
2022-08-25T07:10:52.176Z,5.78
2022-08-25T07:11:54.180Z,5.47
2022-08-25T07:12:55.517Z,5.50
2022-08-25T07:13:56.908Z,4.95
2022-08-25T07:15:17.130Z,5.57
2022-08-25T07:16:20.573Z,5.55
2022-08-25T07:17:23.533Z,5.10
2022-08-25T07:18:26.867Z,5.93
2022-08-25T07:19:28.334Z,5.40
2022-08-25T07:20:31.353Z,5.45
2022-08-25T07:21:35.718Z,5.03
2022-08-25T07:22:37.800Z,5.43
2022-08-25T07:23:39.978Z,5.43
2022-08-25T07:24:41.405Z,5.47
2022-08-25T07:25:42.764Z,5.47
2022-08-25T07:26:46.468Z,5.45
2022-08-25T07:27:47.930Z,5.45
2022-08-25T07:28:49.648Z,5.55
2022-08-25T07:29:53.886Z,5.85
2022-08-25T07:31:00.826Z,5.82
2022-08-25T07:32:02.498Z,5.53
2022-08-25T07:33:06.817Z,5.50
2022-08-25T07:34:27.380Z,5.53
2022-08-25T07:35:37.549Z,5.68
2022-08-25T07:36:39.291Z,5.70
2022-08-25T07:37:49.202Z,5.47
2022-08-25T07:38:51.087Z,5.13
2022-08-25T07:39:52.808Z,5.00
2022-08-25T07:41:00.749Z,5.63
2022-08-25T07:42:02.229Z,5.20
2022-08-25T07:43:05.383Z,5.50
2022-08-25T07:44:09.300Z,5.43
2022-08-25T07:45:11.318Z,5.50
2022-08-25T07:46:13.158Z,5.03
2022-08-25T07:47:15.937Z,5.47
2022-08-25T07:48:19.731Z,5.70
2022-08-25T07:49:23.155Z,5.07
2022-08-25T07:50:25.058Z,5.70
2022-08-25T07:52:28.882Z,4.95
2022-08-25T07:53:31.289Z,5.03
2022-08-25T07:54:33.781Z,5.30
2022-08-25T07:55:38.434Z,5.53
2022-08-25T07:56:41.371Z,5.13
2022-08-25T07:57:42.949Z,5.35
2022-08-25T07:58:44.448Z,5.15
2022-08-25T07:59:46.870Z,4.80
2022-08-25T08:00:48.289Z,5.05
2022-08-25T08:01:52.183Z,5.07
2022-08-25T08:02:53.780Z,4.90
2022-08-25T08:03:56.287Z,5.25
2022-08-25T08:05:00.744Z,4.90
2022-08-25T08:06:07.331Z,4.90
2022-08-25T08:07:11.987Z,5.18
2022-08-25T08:08:13.677Z,4.82
2022-08-25T08:09:16.132Z,5.03
2022-08-25T08:11:00.580Z,5.03
2022-08-25T08:11:53.658Z,4.70
2022-08-25T08:12:55.526Z,4.57
2022-08-25T08:13:57.821Z,4.63
2022-08-25T08:14:59.383Z,4.82
2022-08-25T08:16:01.021Z,4.43
2022-08-25T08:17:09.413Z,4.43
2022-08-25T08:18:10.856Z,4.88
2022-08-25T08:19:13.176Z,4.78
2022-08-25T08:20:15.301Z,4.70
2022-08-25T08:21:19.196Z,4.78
2022-08-25T08:22:21.392Z,4.57
2022-08-25T08:23:27.632Z,4.60
2022-08-25T08:24:44.927Z,4.47
2022-08-25T08:25:51.300Z,4.75
2022-08-25T08:26:58.573Z,4.47
2022-08-25T08:28:00.238Z,4.35
2022-08-25T08:29:02.652Z,4.03
2022-08-25T08:30:06.183Z,4.70
2022-08-25T08:31:10.746Z,5.15
2022-08-25T08:32:15.277Z,4.30
2022-08-25T08:33:16.613Z,4.55
2022-08-25T08:34:18.321Z,4.47
2022-08-25T08:35:19.799Z,4.32
2022-08-25T08:36:21.927Z,4.70
2022-08-25T08:37:27.653Z,4.32
2022-08-25T08:38:29.152Z,4.38
2022-08-25T08:39:30.652Z,4.32
2022-08-25T08:40:38.736Z,4.50
2022-08-25T08:42:16.546Z,5.10
2022-08-25T08:43:18.954Z,4.75
2022-08-25T08:44:29.346Z,4.43
2022-08-25T08:45:40.169Z,4.47
2022-08-25T08:47:00.152Z,4.60
2022-08-25T08:48:01.489Z,4.18
2022-08-25T08:49:06.500Z,4.47
2022-08-25T08:50:23.149Z,4.47
2022-08-25T08:51:33.176Z,4.30
2022-08-25T08:52:44.068Z,4.93
2022-08-25T08:53:48.383Z,4.78
2022-08-25T08:54:54.005Z,4.43
2022-08-25T08:55:57.234Z,4.20
2022-08-25T08:57:03.783Z,4.60
2022-08-25T08:58:09.439Z,4.30
2022-08-25T08:59:14.199Z,4.28
2022-08-25T09:00:15.721Z,4.10
2022-08-25T09:01:37.359Z,4.75
2022-08-25T09:02:52.009Z,4.13
2022-08-25T09:03:59.853Z,4.63
2022-08-25T09:05:07.261Z,4.63
2022-08-25T09:06:11.861Z,4.32
2022-08-25T09:07:16.224Z,4.60
2022-08-25T09:08:20.425Z,4.43
2022-08-25T09:09:35.995Z,4.63
2022-08-25T09:10:54.203Z,4.50
2022-08-25T09:11:56.566Z,4.63
2022-08-25T09:13:13.316Z,4.53
2022-08-25T09:14:40.033Z,4.35
2022-08-25T09:16:20.489Z,4.60
2022-08-25T09:17:57.743Z,4.10
2022-08-25T09:19:23.742Z,4.53
2022-08-25T09:20:25.163Z,4.57
2022-08-25T09:22:33.531Z,4.22
2022-08-25T09:23:41.689Z,4.32
2022-08-25T09:24:45.953Z,4.18
2022-08-25T09:25:54.308Z,4.25
2022-08-25T09:27:04.825Z,4.47
2022-08-25T09:28:12.430Z,4.40
2022-08-25T09:29:16.567Z,4.32
2022-08-25T09:30:19.228Z,4.18
2022-08-25T09:31:28.726Z,4.20
2022-08-25T09:32:32.672Z,4.20
2022-08-25T09:33:35.505Z,4.40
2022-08-25T09:34:37.102Z,4.78
2022-08-25T09:35:40.640Z,4.03
2022-08-25T09:36:42.656Z,4.60
2022-08-25T09:37:55.073Z,5.03
2022-08-25T09:38:56.794Z,4.80
2022-08-25T09:39:58.198Z,4.35
2022-08-25T09:41:01.017Z,4.80
2022-08-25T09:42:02.381Z,4.45
2022-08-25T09:43:05.646Z,4.50
2022-08-25T09:44:15.896Z,4.13
2022-08-25T09:45:30.084Z,4.32
2022-08-25T09:46:31.594Z,4.50
2022-08-25T09:47:41.818Z,4.53
2022-08-25T09:48:43.131Z,4.20
2022-08-25T09:50:00.078Z,4.00
2022-08-25T09:51:10.247Z,3.92
2022-08-25T09:52:23.761Z,4.13
2022-08-25T09:53:27.086Z,4.30
2022-08-25T09:54:34.085Z,3.78
2022-08-25T09:55:47.216Z,4.35
2022-08-25T09:56:49.893Z,4.55
2022-08-25T09:57:57.535Z,4.97
2022-08-25T09:59:17.775Z,4.50
2022-08-25T10:00:24.607Z,4.20
2022-08-25T10:01:26.000Z,4.05
2022-08-25T10:02:33.576Z,3.55
2022-08-25T10:03:53.068Z,3.63
2022-08-25T10:04:55.028Z,3.70
2022-08-25T10:05:59.498Z,4.47
2022-08-25T10:07:02.130Z,4.53
2022-08-25T10:08:16.234Z,4.07
2022-08-25T10:09:47.282Z,3.92
2022-08-25T10:10:54.137Z,4.25
2022-08-25T10:11:59.912Z,4.38
2022-08-25T10:13:03.459Z,4.10
2022-08-25T10:14:16.168Z,4.20
2022-08-25T10:15:30.259Z,3.55
2022-08-25T10:16:36.338Z,4.05
2022-08-25T10:17:38.457Z,3.85
2022-08-25T10:18:40.595Z,3.83
2022-08-25T10:19:44.326Z,4.00
2022-08-25T10:21:00.587Z,3.35
2022-08-25T10:22:05.406Z,4.15
2022-08-25T10:23:14.048Z,4.07
2022-08-25T10:24:15.385Z,3.80
2022-08-25T10:25:20.503Z,3.75
2022-08-25T10:26:42.405Z,4.00
2022-08-25T10:27:52.900Z,3.83
2022-08-25T10:29:01.904Z,3.90
2022-08-25T10:30:16.902Z,4.15
2022-08-25T10:31:22.598Z,4.25
2022-08-25T10:32:36.687Z,4.03
2022-08-25T10:33:53.383Z,4.10
2022-08-25T10:34:56.196Z,4.13
2022-08-25T10:36:01.579Z,4.03
2022-08-25T10:37:05.719Z,3.95
2022-08-25T10:38:10.572Z,4.18
2022-08-25T10:39:33.857Z,4.18
2022-08-25T10:40:44.075Z,4.30
2022-08-25T10:41:53.446Z,4.13
2022-08-25T10:43:07.727Z,4.05
2022-08-25T10:44:40.492Z,3.92
2022-08-25T10:45:45.955Z,3.67
2022-08-25T10:46:53.236Z,4.22
2022-08-25T10:48:14.516Z,3.83
2022-08-25T10:49:19.880Z,4.28
2022-08-25T10:50:34.690Z,3.70
2022-08-25T10:51:40.281Z,4.05
2022-08-25T10:52:44.337Z,4.13
2022-08-25T10:53:56.841Z,3.88
2022-08-25T10:55:05.719Z,4.13
2022-08-25T10:56:24.864Z,3.97
2022-08-25T10:57:32.373Z,3.90
2022-08-25T10:58:51.633Z,3.92
2022-08-25T11:00:12.501Z,8.48
2022-08-25T11:01:28.039Z,5.85
2022-08-25T11:02:43.313Z,4.22
2022-08-25T11:03:49.211Z,4.40
2022-08-25T11:04:55.560Z,4.20
2022-08-25T11:05:59.953Z,4.18
2022-08-25T11:07:08.127Z,4.45
2022-08-25T11:08:12.639Z,4.20
2022-08-25T11:09:18.365Z,4.68
2022-08-25T11:10:25.253Z,4.70
2022-08-25T11:11:26.609Z,4.10
2022-08-25T11:12:55.211Z,3.95
2022-08-25T11:13:58.959Z,4.18
2022-08-25T11:15:04.115Z,3.97
2022-08-25T11:16:17.456Z,3.90
2022-08-25T11:17:23.922Z,3.75
2022-08-25T11:18:28.383Z,3.72
2022-08-25T11:19:37.853Z,3.58
2022-08-25T11:20:45.349Z,3.70
2022-08-25T11:22:05.571Z,3.67
2022-08-25T11:23:11.452Z,3.83
2022-08-25T11:24:15.868Z,3.33
2022-08-25T11:25:19.967Z,4.10
2022-08-25T11:26:31.952Z,3.60
2022-08-25T11:27:38.264Z,3.50
2022-08-25T11:28:48.815Z,4.93
2022-08-25T11:29:58.073Z,3.70
2022-08-25T11:31:00.495Z,3.63
2022-08-25T11:32:02.321Z,4.35
2022-08-25T11:33:04.018Z,3.67
2022-08-25T11:34:08.481Z,3.60
2022-08-25T11:35:12.160Z,3.88
2022-08-25T11:36:30.834Z,3.70
2022-08-25T11:37:32.931Z,3.90
2022-08-25T11:38:54.151Z,3.35
2022-08-25T11:40:19.092Z,3.53
2022-08-25T11:41:27.116Z,4.20
2022-08-25T11:42:28.485Z,3.88
2022-08-25T11:43:48.347Z,3.83
2022-08-25T11:45:08.678Z,4.25
2022-08-25T11:46:19.207Z,3.70
2022-08-25T11:47:31.633Z,4.00
2022-08-25T11:48:37.642Z,3.40
2022-08-25T11:49:53.952Z,3.72
2022-08-25T11:51:00.646Z,3.25
2022-08-25T11:52:03.128Z,3.58
2022-08-25T11:53:23.662Z,3.80
2022-08-25T11:54:34.296Z,3.72
2022-08-25T11:55:49.995Z,3.38
2022-08-25T11:57:10.221Z,3.78
2022-08-25T11:58:20.540Z,4.07
2022-08-25T11:59:40.685Z,3.80
2022-08-25T12:00:42.970Z,3.90
2022-08-25T12:01:47.259Z,4.05
2022-08-25T12:02:50.511Z,3.63
2022-08-25T12:03:52.661Z,3.85
2022-08-25T12:04:55.370Z,4.00
2022-08-25T12:06:15.642Z,4.00
2022-08-25T12:07:18.890Z,3.63
2022-08-25T12:08:40.164Z,3.50
2022-08-25T12:09:50.901Z,3.78
2022-08-25T12:10:52.241Z,3.95
2022-08-25T12:11:54.943Z,4.35
2022-08-25T12:12:56.586Z,3.63
2022-08-25T12:14:08.681Z,3.90
2022-08-25T12:15:27.038Z,4.15
2022-08-25T12:16:31.351Z,3.90
2022-08-25T12:17:39.748Z,4.20
2022-08-25T12:18:45.835Z,4.00
2022-08-25T12:19:49.638Z,3.58
2022-08-25T12:20:53.969Z,3.97
2022-08-25T12:22:22.156Z,4.13
2022-08-25T12:23:32.358Z,3.65
2022-08-25T12:24:48.140Z,3.83
2022-08-25T12:25:52.115Z,3.58
2022-08-25T12:27:02.634Z,3.40
2022-08-25T12:28:26.675Z,3.78
2022-08-25T12:29:28.234Z,3.55
2022-08-25T12:30:43.752Z,3.42
2022-08-25T12:31:46.826Z,3.53
2022-08-25T12:32:50.770Z,3.53
2022-08-25T12:33:52.073Z,4.32
2022-08-25T12:35:11.834Z,3.70
2022-08-25T12:36:25.555Z,3.50
2022-08-25T12:37:28.243Z,3.25
2022-08-25T12:38:44.132Z,3.60
2022-08-25T12:39:50.629Z,3.30
2022-08-25T12:41:00.333Z,3.40
2022-08-25T12:42:04.350Z,3.90
2022-08-25T12:43:19.815Z,3.55
2022-08-25T12:44:41.680Z,3.50
2022-08-25T12:45:46.004Z,3.70
2022-08-25T12:46:47.418Z,3.63
2022-08-25T12:47:50.306Z,3.83
2022-08-25T12:49:28.595Z,3.90
2022-08-25T12:50:41.585Z,3.40
2022-08-25T12:51:53.343Z,3.83
2022-08-25T12:52:56.155Z,3.40
2022-08-25T12:54:01.164Z,3.20
2022-08-25T12:55:11.357Z,2.90
2022-08-25T12:56:23.705Z,3.70
2022-08-25T12:57:29.501Z,3.88
2022-08-25T12:59:06.768Z,3.50
2022-08-25T13:00:16.618Z,3.50
2022-08-25T13:01:35.718Z,4.13
2022-08-25T13:02:51.910Z,3.45
2022-08-25T13:04:00.419Z,3.10
2022-08-25T13:05:05.413Z,3.67
2022-08-25T13:06:25.557Z,3.63
2022-08-25T13:07:33.385Z,3.47
2022-08-25T13:09:08.530Z,3.90
2022-08-25T13:10:23.192Z,3.60
2022-08-25T13:11:27.318Z,3.17
2022-08-25T13:12:31.536Z,3.20
2022-08-25T13:13:32.833Z,3.50
2022-08-25T13:14:38.191Z,3.30
2022-08-25T13:15:42.141Z,3.35
2022-08-25T13:16:55.047Z,3.65
2022-08-25T13:18:12.260Z,3.22
2022-08-25T13:19:17.999Z,3.60
2022-08-25T13:20:29.154Z,3.85
2022-08-25T13:21:35.960Z,3.45
2022-08-25T13:22:38.644Z,3.05
2022-08-25T13:23:41.810Z,3.00
2022-08-25T13:24:44.040Z,3.13
2022-08-25T13:25:48.771Z,2.95
2022-08-25T13:26:53.741Z,3.70
2022-08-25T13:27:58.065Z,3.25
2022-08-25T13:28:59.930Z,3.35
2022-08-25T13:30:03.987Z,3.40
2022-08-25T13:31:09.596Z,3.70
2022-08-25T13:32:14.740Z,3.30
2022-08-25T13:33:17.777Z,3.58
2022-08-25T13:34:23.565Z,3.25
2022-08-25T13:35:35.957Z,3.47
2022-08-25T13:37:04.084Z,3.50
2022-08-25T13:38:14.907Z,2.85
2022-08-25T13:39:19.896Z,3.45
2022-08-25T13:40:36.509Z,3.10
2022-08-25T13:41:43.670Z,3.30
2022-08-25T13:42:52.948Z,3.00
2022-08-25T13:44:00.913Z,3.30
2022-08-25T13:45:07.365Z,2.92
2022-08-25T13:46:08.921Z,3.00
2022-08-25T13:47:13.804Z,3.15
2022-08-25T13:48:30.935Z,3.40
2022-08-25T13:49:32.469Z,3.15
2022-08-25T13:50:36.980Z,2.80
2022-08-25T13:51:41.489Z,3.45
2022-08-25T13:52:48.584Z,3.30
2022-08-25T13:53:55.740Z,2.92
2022-08-25T13:55:04.640Z,3.28
2022-08-25T13:56:07.127Z,2.70
2022-08-25T13:57:15.978Z,3.45
2022-08-25T13:58:39.432Z,3.38
2022-08-25T13:59:50.297Z,3.00
2022-08-25T14:01:22.840Z,3.30
2022-08-25T14:02:39.571Z,3.30
2022-08-25T14:03:46.805Z,2.85
2022-08-25T14:04:51.820Z,2.80
2022-08-25T14:06:04.157Z,2.88
2022-08-25T14:07:25.697Z,3.03
2022-08-25T14:08:38.550Z,2.80
2022-08-25T14:09:41.582Z,2.72
2022-08-25T14:10:44.148Z,2.72
2022-08-25T14:11:47.093Z,3.30
2022-08-25T14:13:06.698Z,3.33
2022-08-25T14:14:30.814Z,3.63
2022-08-25T14:15:33.952Z,3.10
2022-08-25T14:16:50.072Z,2.97
2022-08-25T14:18:14.268Z,3.20
2022-08-25T14:19:20.325Z,3.13
2022-08-25T14:20:27.163Z,2.80
2022-08-25T14:21:30.267Z,3.17
2022-08-25T14:22:31.609Z,3.35
2022-08-25T14:23:35.591Z,3.25
2022-08-25T14:24:40.707Z,3.13
2022-08-25T14:25:42.535Z,3.00
2022-08-25T14:26:54.552Z,3.28
2022-08-25T14:28:08.304Z,3.13
2022-08-25T14:29:09.870Z,3.15
2022-08-25T14:30:12.237Z,3.15
2022-08-25T14:31:15.150Z,3.08
2022-08-25T14:32:16.905Z,3.38
2022-08-25T14:33:19.693Z,2.60